sensor_id;sensor_type;location;lat;lon;timestamp;temperature;humidity
1165;DHT22;571;50.930;6.926;2023-03-01T03:47:37;1.00;89.70
1165;DHT22;571;50.930;6.926;2023-03-01T03:50:05;0.90;90.30
1165;DHT22;571;50.930;6.926;2023-03-01T03:52:31;0.90;90.00
1165;DHT22;571;50.930;6.926;2023-03-01T03:54:58;0.90;90.10
1165;DHT22;571;50.930;6.926;2023-03-01T03:57:25;1.00;88.80
1165;DHT22;571;50.930;6.926;2023-03-01T03:59:51;0.90;88.70
1165;DHT22;571;50.930;6.926;2023-03-01T04:02:18;0.90;88.60
1165;DHT22;571;50.930;6.926;2023-03-01T04:04:51;0.90;88.30
1165;DHT22;571;50.930;6.926;2023-03-01T04:07:17;0.90;87.90
1165;DHT22;571;50.930;6.926;2023-03-01T04:09:44;1.00;87.80
1165;DHT22;571;50.930;6.926;2023-03-01T04:12:11;1.00;87.80
1165;DHT22;571;50.930;6.926;2023-03-01T04:14:37;1.00;88.40
1165;DHT22;571;50.930;6.926;2023-03-01T04:17:04;0.80;90.50
1165;DHT22;571;50.930;6.926;2023-03-01T04:19:31;0.70;91.00
1165;DHT22;571;50.930;6.926;2023-03-01T04:22:02;0.80;90.60
1165;DHT22;571;50.930;6.926;2023-03-01T04:24:34;0.90;89.80
1165;DHT22;571;50.930;6.926;2023-03-01T04:27:01;0.90;89.30
1165;DHT22;571;50.930;6.926;2023-03-01T04:29:28;0.80;90.00
1165;DHT22;571;50.930;6.926;2023-03-01T04:31:55;0.90;89.00
1165;DHT22;571;50.930;6.926;2023-03-01T04:34:22;0.90;88.60
1165;DHT22;571;50.930;6.926;2023-03-01T04:36:49;0.90;89.30
1165;DHT22;571;50.930;6.926;2023-03-01T04:39:17;0.80;90.00
1165;DHT22;571;50.930;6.926;2023-03-01T04:41:43;0.70;91.00
1165;DHT22;571;50.930;6.926;2023-03-01T04:44:10;0.60;91.40
1165;DHT22;571;50.930;6.926;2023-03-01T04:46:38;0.70;90.80
1165;DHT22;571;50.930;6.926;2023-03-01T04:49:05;0.60;90.60
1165;DHT22;571;50.930;6.926;2023-03-01T04:51:31;0.50;91.20
1165;DHT22;571;50.930;6.926;2023-03-01T04:53:59;0.40;91.30
1165;DHT22;571;50.930;6.926;2023-03-01T04:56:28;0.40;91.50
1165;DHT22;571;50.930;6.926;2023-03-01T04:58:54;0.50;90.90
1165;DHT22;571;50.930;6.926;2023-03-01T05:01:21;0.50;90.80
1165;DHT22;571;50.930;6.926;2023-03-01T05:03:49;0.50;90.60
1165;DHT22;571;50.930;6.926;2023-03-01T05:06:17;0.60;90.60
1165;DHT22;571;50.930;6.926;2023-03-01T05:08:44;0.50;90.90
1165;DHT22;571;50.930;6.926;2023-03-01T05:11:11;0.50;91.00
1165;DHT22;571;50.930;6.926;2023-03-01T05:13:40;0.40;91.40
1165;DHT22;571;50.930;6.926;2023-03-01T05:16:08;0.40;91.00
1165;DHT22;571;50.930;6.926;2023-03-01T05:18:36;0.40;91.30
1165;DHT22;571;50.930;6.926;2023-03-01T05:21:05;0.40;91.20
1165;DHT22;571;50.930;6.926;2023-03-01T05:23:32;0.40;91.30
1165;DHT22;571;50.930;6.926;2023-03-01T05:26:00;0.30;91.50
1165;DHT22;571;50.930;6.926;2023-03-01T05:28:29;0.20;91.80
1165;DHT22;571;50.930;6.926;2023-03-01T05:30:57;0.10;92.00
1165;DHT22;571;50.930;6.926;2023-03-01T05:33:25;0.20;91.90
1165;DHT22;571;50.930;6.926;2023-03-01T05:35:52;0.20;91.80
1165;DHT22;571;50.930;6.926;2023-03-01T05:38:20;0.10;91.90
1165;DHT22;571;50.930;6.926;2023-03-01T05:40:48;0.10;91.90
1165;DHT22;571;50.930;6.926;2023-03-01T05:43:16;0.10;92.20
1165;DHT22;571;50.930;6.926;2023-03-01T05:45:43;0.20;91.90
1165;DHT22;571;50.930;6.926;2023-03-01T05:48:12;0.10;91.80
1165;DHT22;571;50.930;6.926;2023-03-01T05:50:40;0.10;92.10
1165;DHT22;571;50.930;6.926;2023-03-01T05:53:10;0.10;92.00
1165;DHT22;571;50.930;6.926;2023-03-01T05:55:38;0.10;92.00
1165;DHT22;571;50.930;6.926;2023-03-01T05:58:06;0.20;91.40
1165;DHT22;571;50.930;6.926;2023-03-01T06:00:33;0.20;91.40
1165;DHT22;571;50.930;6.926;2023-03-01T06:03:01;0.20;91.50
1165;DHT22;571;50.930;6.926;2023-03-01T06:05:29;0.10;91.70
1165;DHT22;571;50.930;6.926;2023-03-01T06:07:59;0.10;91.50
1165;DHT22;571;50.930;6.926;2023-03-01T06:10:26;0.10;91.90
1165;DHT22;571;50.930;6.926;2023-03-01T06:12:53;0.00;92.20
1165;DHT22;571;50.930;6.926;2023-03-01T06:15:20;0.00;92.20
1165;DHT22;571;50.930;6.926;2023-03-01T06:17:47;0.10;92.10
1165;DHT22;571;50.930;6.926;2023-03-01T06:20:15;0.20;91.30
1165;DHT22;571;50.930;6.926;2023-03-01T06:22:44;0.20;91.00
1165;DHT22;571;50.930;6.926;2023-03-01T06:25:12;0.30;90.80
1165;DHT22;571;50.930;6.926;2023-03-01T06:27:40;0.20;91.30
1165;DHT22;571;50.930;6.926;2023-03-01T06:30:11;0.10;91.40
1165;DHT22;571;50.930;6.926;2023-03-01T06:32:39;0.00;92.10
1165;DHT22;571;50.930;6.926;2023-03-01T06:35:07;0.00;92.40
1165;DHT22;571;50.930;6.926;2023-03-01T06:37:34;0.00;92.40
1165;DHT22;571;50.930;6.926;2023-03-01T06:40:03;0.10;91.80
1165;DHT22;571;50.930;6.926;2023-03-01T06:42:33;0.20;91.30
1165;DHT22;571;50.930;6.926;2023-03-01T06:45:00;0.10;92.10
1165;DHT22;571;50.930;6.926;2023-03-01T06:47:26;0.10;91.70
1165;DHT22;571;50.930;6.926;2023-03-01T06:49:53;0.20;92.20
1165;DHT22;571;50.930;6.926;2023-03-01T06:52:20;0.20;91.80
1165;DHT22;571;50.930;6.926;2023-03-01T06:54:47;0.20;91.60
1165;DHT22;571;50.930;6.926;2023-03-01T06:57:15;0.20;91.60
1165;DHT22;571;50.930;6.926;2023-03-01T06:59:41;0.20;91.30
1165;DHT22;571;50.930;6.926;2023-03-01T07:02:10;0.30;91.30
1165;DHT22;571;50.930;6.926;2023-03-01T07:04:36;0.30;91.60
1165;DHT22;571;50.930;6.926;2023-03-01T07:07:03;0.40;90.80
1165;DHT22;571;50.930;6.926;2023-03-01T07:09:30;0.40;91.30
1165;DHT22;571;50.930;6.926;2023-03-01T07:11:57;0.30;91.70
1165;DHT22;571;50.930;6.926;2023-03-01T07:14:25;0.30;91.40
1165;DHT22;571;50.930;6.926;2023-03-01T07:16:52;0.30;91.60
1165;DHT22;571;50.930;6.926;2023-03-01T07:19:19;0.30;92.20
1165;DHT22;571;50.930;6.926;2023-03-01T07:21:46;0.40;92.40
1165;DHT22;571;50.930;6.926;2023-03-01T07:24:13;0.50;92.40
1165;DHT22;571;50.930;6.926;2023-03-01T07:26:40;0.50;92.10
1165;DHT22;571;50.930;6.926;2023-03-01T07:29:09;0.50;92.00
1165;DHT22;571;50.930;6.926;2023-03-01T07:31:37;0.60;91.30
1165;DHT22;571;50.930;6.926;2023-03-01T07:34:04;0.70;90.70
1165;DHT22;571;50.930;6.926;2023-03-01T07:36:31;0.80;90.30
1165;DHT22;571;50.930;6.926;2023-03-01T07:38:58;0.90;90.30
1165;DHT22;571;50.930;6.926;2023-03-01T07:41:27;0.90;90.40
1165;DHT22;571;50.930;6.926;2023-03-01T07:43:54;0.90;91.10
1165;DHT22;571;50.930;6.926;2023-03-01T07:46:21;1.00;90.60
1165;DHT22;571;50.930;6.926;2023-03-01T07:48:49;1.20;89.30
1165;DHT22;571;50.930;6.926;2023-03-01T07:51:16;1.20;88.80
1165;DHT22;571;50.930;6.926;2023-03-01T07:53:45;1.30;88.10
1165;DHT22;571;50.930;6.926;2023-03-01T07:56:13;1.40;87.40
1165;DHT22;571;50.930;6.926;2023-03-01T07:58:44;1.40;88.90
1165;DHT22;571;50.930;6.926;2023-03-01T08:01:12;1.50;87.50
1165;DHT22;571;50.930;6.926;2023-03-01T08:03:39;1.60;87.10
1165;DHT22;571;50.930;6.926;2023-03-01T08:06:09;1.70;85.90
1165;DHT22;571;50.930;6.926;2023-03-01T08:08:37;1.70;86.50
1165;DHT22;571;50.930;6.926;2023-03-01T08:11:05;1.70;86.50
1165;DHT22;571;50.930;6.926;2023-03-01T08:13:33;1.80;85.50
1165;DHT22;571;50.930;6.926;2023-03-01T08:16:04;1.90;85.20
1165;DHT22;571;50.930;6.926;2023-03-01T08:18:31;1.90;87.10
1165;DHT22;571;50.930;6.926;2023-03-01T08:21:02;1.80;87.60
1165;DHT22;571;50.930;6.926;2023-03-01T08:23:30;2.00;86.20
1165;DHT22;571;50.930;6.926;2023-03-01T08:26:04;2.10;85.00
1165;DHT22;571;50.930;6.926;2023-03-01T08:28:31;2.20;84.70
1165;DHT22;571;50.930;6.926;2023-03-01T08:30:58;2.20;84.70
1165;DHT22;571;50.930;6.926;2023-03-01T08:33:24;2.30;83.80
1165;DHT22;571;50.930;6.926;2023-03-01T08:35:51;2.40;83.30
1165;DHT22;571;50.930;6.926;2023-03-01T08:38:18;2.50;83.10
1165;DHT22;571;50.930;6.926;2023-03-01T08:40:46;2.50;83.40
1165;DHT22;571;50.930;6.926;2023-03-01T08:43:12;2.60;83.10
1165;DHT22;571;50.930;6.926;2023-03-01T08:45:39;2.60;84.10
1165;DHT22;571;50.930;6.926;2023-03-01T08:48:06;2.70;83.20
1165;DHT22;571;50.930;6.926;2023-03-01T08:50:33;2.70;82.80
1165;DHT22;571;50.930;6.926;2023-03-01T08:52:59;2.90;81.50
1165;DHT22;571;50.930;6.926;2023-03-01T08:55:26;2.90;82.10
1165;DHT22;571;50.930;6.926;2023-03-01T08:57:55;3.00;81.00
1165;DHT22;571;50.930;6.926;2023-03-01T09:00:24;3.00;82.70
1165;DHT22;571;50.930;6.926;2023-03-01T09:02:51;3.00;82.00
1165;DHT22;571;50.930;6.926;2023-03-01T09:05:18;3.20;80.70
1165;DHT22;571;50.930;6.926;2023-03-01T09:07:44;3.20;81.50
1165;DHT22;571;50.930;6.926;2023-03-01T09:10:11;3.30;81.10
1165;DHT22;571;50.930;6.926;2023-03-01T09:12:38;3.30;81.00
1165;DHT22;571;50.930;6.926;2023-03-01T09:15:07;3.40;81.60
1165;DHT22;571;50.930;6.926;2023-03-01T09:17:34;3.40;81.70
1165;DHT22;571;50.930;6.926;2023-03-01T09:20:00;3.50;81.20
1165;DHT22;571;50.930;6.926;2023-03-01T09:22:28;3.70;80.00
1165;DHT22;571;50.930;6.926;2023-03-01T09:24:55;3.70;79.50
1165;DHT22;571;50.930;6.926;2023-03-01T09:27:24;3.70;78.80
1165;DHT22;571;50.930;6.926;2023-03-01T09:29:51;3.70;79.00
1165;DHT22;571;50.930;6.926;2023-03-01T09:32:19;3.80;79.20
1165;DHT22;571;50.930;6.926;2023-03-01T09:34:45;3.90;79.10
1165;DHT22;571;50.930;6.926;2023-03-01T09:37:30;3.90;79.60
1165;DHT22;571;50.930;6.926;2023-03-01T09:39:58;4.10;77.30
1165;DHT22;571;50.930;6.926;2023-03-01T09:42:25;4.20;76.90
1165;DHT22;571;50.930;6.926;2023-03-01T09:44:54;4.10;78.20
1165;DHT22;571;50.930;6.926;2023-03-01T09:47:26;4.00;77.60
1165;DHT22;571;50.930;6.926;2023-03-01T09:50:00;4.20;77.40
1165;DHT22;571;50.930;6.926;2023-03-01T09:52:33;4.30;77.00
1165;DHT22;571;50.930;6.926;2023-03-01T09:55:00;4.30;75.60
1165;DHT22;571;50.930;6.926;2023-03-01T09:57:31;4.40;76.00
1165;DHT22;571;50.930;6.926;2023-03-01T10:00:15;4.40;76.50
1165;DHT22;571;50.930;6.926;2023-03-01T10:02:48;4.60;75.70
1165;DHT22;571;50.930;6.926;2023-03-01T10:05:27;4.70;74.80
1165;DHT22;571;50.930;6.926;2023-03-01T10:08:06;4.70;74.80
1165;DHT22;571;50.930;6.926;2023-03-01T10:10:44;4.80;74.70
1165;DHT22;571;50.930;6.926;2023-03-01T10:13:17;4.80;75.70
1165;DHT22;571;50.930;6.926;2023-03-01T10:15:50;4.80;74.30
1165;DHT22;571;50.930;6.926;2023-03-01T10:18:23;5.00;74.40
1165;DHT22;571;50.930;6.926;2023-03-01T10:20:54;5.00;74.80
1165;DHT22;571;50.930;6.926;2023-03-01T10:23:23;5.10;73.80
1165;DHT22;571;50.930;6.926;2023-03-01T10:26:06;5.20;73.20
1165;DHT22;571;50.930;6.926;2023-03-01T10:28:44;5.30;72.10
1165;DHT22;571;50.930;6.926;2023-03-01T10:31:15;5.30;70.70
1165;DHT22;571;50.930;6.926;2023-03-01T10:33:45;5.40;71.30
1165;DHT22;571;50.930;6.926;2023-03-01T10:36:13;5.40;71.10
1165;DHT22;571;50.930;6.926;2023-03-01T10:38:51;5.50;71.00
1165;DHT22;571;50.930;6.926;2023-03-01T10:41:20;5.50;74.00
1165;DHT22;571;50.930;6.926;2023-03-01T10:43:50;5.60;73.00
1165;DHT22;571;50.930;6.926;2023-03-01T10:46:23;5.80;70.70
1165;DHT22;571;50.930;6.926;2023-03-01T10:49:06;5.80;72.00
1165;DHT22;571;50.930;6.926;2023-03-01T10:51:33;6.00;71.00
1165;DHT22;571;50.930;6.926;2023-03-01T10:54:00;6.00;71.90
1165;DHT22;571;50.930;6.926;2023-03-01T10:56:27;6.10;72.30
1165;DHT22;571;50.930;6.926;2023-03-01T10:59:00;6.20;70.40
1165;DHT22;571;50.930;6.926;2023-03-01T11:01:29;6.40;69.70
1165;DHT22;571;50.930;6.926;2023-03-01T11:04:11;6.60;68.40
1165;DHT22;571;50.930;6.926;2023-03-01T11:06:39;6.70;67.30
1165;DHT22;571;50.930;6.926;2023-03-01T11:09:14;6.80;65.60
1165;DHT22;571;50.930;6.926;2023-03-01T11:11:41;7.00;64.30
1165;DHT22;571;50.930;6.926;2023-03-01T11:14:16;7.10;61.20
1165;DHT22;571;50.930;6.926;2023-03-01T11:16:45;7.30;61.80
1165;DHT22;571;50.930;6.926;2023-03-01T11:19:19;7.30;63.30
1165;DHT22;571;50.930;6.926;2023-03-01T11:21:58;7.40;64.60
1165;DHT22;571;50.930;6.926;2023-03-01T11:24:34;7.60;63.20
1165;DHT22;571;50.930;6.926;2023-03-01T11:27:06;7.70;62.80
1165;DHT22;571;50.930;6.926;2023-03-01T11:29:40;7.70;64.30
1165;DHT22;571;50.930;6.926;2023-03-01T11:32:09;7.80;65.70
1165;DHT22;571;50.930;6.926;2023-03-01T11:34:42;7.90;64.90
1165;DHT22;571;50.930;6.926;2023-03-01T11:37:32;8.20;62.30
1165;DHT22;571;50.930;6.926;2023-03-01T11:40:05;8.50;62.30
1165;DHT22;571;50.930;6.926;2023-03-01T11:42:46;8.30;60.60
1165;DHT22;571;50.930;6.926;2023-03-01T11:45:14;8.20;64.20
1165;DHT22;571;50.930;6.926;2023-03-01T11:48:07;8.50;63.60
1165;DHT22;571;50.930;6.926;2023-03-01T11:50:44;8.80;60.10
1165;DHT22;571;50.930;6.926;2023-03-01T11:53:24;9.10;56.80
1165;DHT22;571;50.930;6.926;2023-03-01T11:56:02;9.20;57.70
1165;DHT22;571;50.930;6.926;2023-03-01T11:58:45;9.20;57.40
1165;DHT22;571;50.930;6.926;2023-03-01T12:01:28;9.10;58.80
1165;DHT22;571;50.930;6.926;2023-03-01T12:06:59;9.60;56.30
1165;DHT22;571;50.930;6.926;2023-03-01T12:09:51;9.90;56.00
1165;DHT22;571;50.930;6.926;2023-03-01T12:12:34;10.20;52.50
1165;DHT22;571;50.930;6.926;2023-03-01T12:15:28;10.50;54.60
1165;DHT22;571;50.930;6.926;2023-03-01T12:18:19;10.70;56.10
1165;DHT22;571;50.930;6.926;2023-03-01T12:20:58;10.70;54.40
1165;DHT22;571;50.930;6.926;2023-03-01T12:26:47;11.00;52.30
1165;DHT22;571;50.930;6.926;2023-03-01T12:29:24;10.60;51.90
1165;DHT22;571;50.930;6.926;2023-03-01T12:32:22;10.60;52.30
1165;DHT22;571;50.930;6.926;2023-03-01T12:35:13;10.60;51.40
1165;DHT22;571;50.930;6.926;2023-03-01T12:37:54;10.30;52.30
1165;DHT22;571;50.930;6.926;2023-03-01T12:40:32;10.60;52.60
1165;DHT22;571;50.930;6.926;2023-03-01T12:43:11;10.60;50.60
1165;DHT22;571;50.930;6.926;2023-03-01T12:45:53;10.90;51.80
1165;DHT22;571;50.930;6.926;2023-03-01T12:48:36;11.10;48.50
1165;DHT22;571;50.930;6.926;2023-03-01T12:51:08;11.20;50.70
1165;DHT22;571;50.930;6.926;2023-03-01T12:53:40;11.60;52.20
1165;DHT22;571;50.930;6.926;2023-03-01T12:56:10;12.10;49.70
1165;DHT22;571;50.930;6.926;2023-03-01T12:58:45;12.50;49.60
1165;DHT22;571;50.930;6.926;2023-03-01T13:01:22;12.60;47.30
1165;DHT22;571;50.930;6.926;2023-03-01T13:04:02;12.90;48.60
1165;DHT22;571;50.930;6.926;2023-03-01T13:06:37;13.60;47.40
1165;DHT22;571;50.930;6.926;2023-03-01T13:09:11;13.30;45.70
1165;DHT22;571;50.930;6.926;2023-03-01T13:11:41;13.30;45.80
1165;DHT22;571;50.930;6.926;2023-03-01T13:14:37;13.10;43.70
1165;DHT22;571;50.930;6.926;2023-03-01T13:17:29;13.10;46.20
1165;DHT22;571;50.930;6.926;2023-03-01T13:19:57;13.60;47.70
1165;DHT22;571;50.930;6.926;2023-03-01T13:22:26;14.40;44.30
1165;DHT22;571;50.930;6.926;2023-03-01T13:25:01;14.30;41.80
1165;DHT22;571;50.930;6.926;2023-03-01T13:27:28;13.80;41.80
1165;DHT22;571;50.930;6.926;2023-03-01T13:29:58;13.40;42.60
1165;DHT22;571;50.930;6.926;2023-03-01T13:32:30;13.50;42.40
1165;DHT22;571;50.930;6.926;2023-03-01T13:34:59;13.60;42.10
1165;DHT22;571;50.930;6.926;2023-03-01T13:37:34;13.80;41.50
1165;DHT22;571;50.930;6.926;2023-03-01T13:43:27;13.40;42.00
1165;DHT22;571;50.930;6.926;2023-03-01T13:46:00;13.30;42.30
1165;DHT22;571;50.930;6.926;2023-03-01T13:48:29;12.60;41.60
1165;DHT22;571;50.930;6.926;2023-03-01T13:50:59;12.20;42.10
1165;DHT22;571;50.930;6.926;2023-03-01T13:53:31;12.50;42.30
1165;DHT22;571;50.930;6.926;2023-03-01T13:56:02;12.50;41.80
1165;DHT22;571;50.930;6.926;2023-03-01T13:58:31;12.30;42.20
1165;DHT22;571;50.930;6.926;2023-03-01T14:01:02;12.20;41.40
1165;DHT22;571;50.930;6.926;2023-03-01T14:03:31;11.90;42.40
1165;DHT22;571;50.930;6.926;2023-03-01T14:06:02;12.00;43.70
1165;DHT22;571;50.930;6.926;2023-03-01T14:08:30;11.80;43.90
1165;DHT22;571;50.930;6.926;2023-03-01T14:11:26;11.90;42.90
1165;DHT22;571;50.930;6.926;2023-03-01T14:14:10;11.80;44.10
1165;DHT22;571;50.930;6.926;2023-03-01T14:16:49;11.90;43.20
1165;DHT22;571;50.930;6.926;2023-03-01T14:19:23;11.90;43.80
1165;DHT22;571;50.930;6.926;2023-03-01T14:21:59;12.10;43.00
1165;DHT22;571;50.930;6.926;2023-03-01T14:24:29;12.10;41.60
1165;DHT22;571;50.930;6.926;2023-03-01T14:26:58;12.10;42.60
1165;DHT22;571;50.930;6.926;2023-03-01T14:29:26;12.10;41.50
1165;DHT22;571;50.930;6.926;2023-03-01T14:31:55;12.10;42.00
1165;DHT22;571;50.930;6.926;2023-03-01T14:34:22;12.10;41.80
1165;DHT22;571;50.930;6.926;2023-03-01T14:36:49;12.00;40.60
1165;DHT22;571;50.930;6.926;2023-03-01T14:39:17;12.00;42.80
1165;DHT22;571;50.930;6.926;2023-03-01T14:41:44;11.80;41.50
1165;DHT22;571;50.930;6.926;2023-03-01T14:44:15;11.30;41.10
1165;DHT22;571;50.930;6.926;2023-03-01T14:46:44;10.90;43.20
1165;DHT22;571;50.930;6.926;2023-03-01T14:49:14;10.60;44.40
1165;DHT22;571;50.930;6.926;2023-03-01T14:51:54;10.50;45.70
1165;DHT22;571;50.930;6.926;2023-03-01T14:54:25;10.80;46.10
1165;DHT22;571;50.930;6.926;2023-03-01T14:56:57;10.60;46.50
1165;DHT22;571;50.930;6.926;2023-03-01T14:59:25;10.70;46.90
1165;DHT22;571;50.930;6.926;2023-03-01T15:01:54;10.60;46.80
1165;DHT22;571;50.930;6.926;2023-03-01T15:04:23;10.50;46.90
1165;DHT22;571;50.930;6.926;2023-03-01T15:06:51;10.40;47.30
1165;DHT22;571;50.930;6.926;2023-03-01T15:09:19;10.30;47.80
1165;DHT22;571;50.930;6.926;2023-03-01T15:11:46;10.30;48.00
1165;DHT22;571;50.930;6.926;2023-03-01T15:14:36;10.10;49.20
1165;DHT22;571;50.930;6.926;2023-03-01T15:17:22;10.00;49.10
1165;DHT22;571;50.930;6.926;2023-03-01T15:19:54;10.20;49.70
1165;DHT22;571;50.930;6.926;2023-03-01T15:22:21;10.30;49.30
1165;DHT22;571;50.930;6.926;2023-03-01T15:24:48;10.20;49.70
1165;DHT22;571;50.930;6.926;2023-03-01T15:27:17;10.20;50.50
1165;DHT22;571;50.930;6.926;2023-03-01T15:29:49;10.00;49.60
1165;DHT22;571;50.930;6.926;2023-03-01T15:32:28;9.70;51.60
1165;DHT22;571;50.930;6.926;2023-03-01T15:34:57;9.70;52.00
1165;DHT22;571;50.930;6.926;2023-03-01T15:37:39;9.60;52.70
1165;DHT22;571;50.930;6.926;2023-03-01T15:40:19;9.50;53.80
1165;DHT22;571;50.930;6.926;2023-03-01T15:42:46;9.60;52.60
1165;DHT22;571;50.930;6.926;2023-03-01T15:45:23;9.50;53.20
1165;DHT22;571;50.930;6.926;2023-03-01T15:47:54;9.40;52.30
1165;DHT22;571;50.930;6.926;2023-03-01T15:50:26;9.30;52.30
1165;DHT22;571;50.930;6.926;2023-03-01T15:52:54;9.20;52.10
1165;DHT22;571;50.930;6.926;2023-03-01T15:55:22;9.20;52.90
1165;DHT22;571;50.930;6.926;2023-03-01T15:57:49;9.10;53.00
1165;DHT22;571;50.930;6.926;2023-03-01T16:00:17;9.00;53.30
1165;DHT22;571;50.930;6.926;2023-03-01T16:02:45;9.20;52.60
1165;DHT22;571;50.930;6.926;2023-03-01T16:05:20;9.20;52.30
1165;DHT22;571;50.930;6.926;2023-03-01T16:07:50;9.10;52.20
1165;DHT22;571;50.930;6.926;2023-03-01T16:10:17;9.20;52.20
1165;DHT22;571;50.930;6.926;2023-03-01T16:12:44;9.20;52.80
1165;DHT22;571;50.930;6.926;2023-03-01T16:15:15;9.10;52.90
1165;DHT22;571;50.930;6.926;2023-03-01T16:17:42;8.90;52.10
1165;DHT22;571;50.930;6.926;2023-03-01T16:20:10;8.80;53.00
1165;DHT22;571;50.930;6.926;2023-03-01T16:22:37;8.60;53.60
1165;DHT22;571;50.930;6.926;2023-03-01T16:25:05;8.50;53.60
1165;DHT22;571;50.930;6.926;2023-03-01T16:27:33;8.60;54.10
1165;DHT22;571;50.930;6.926;2023-03-01T16:30:00;8.70;53.70
1165;DHT22;571;50.930;6.926;2023-03-01T16:32:26;8.80;53.70
1165;DHT22;571;50.930;6.926;2023-03-01T16:34:53;8.90;53.30
1165;DHT22;571;50.930;6.926;2023-03-01T16:37:20;8.80;52.90
1165;DHT22;571;50.930;6.926;2023-03-01T16:39:47;8.60;53.70
1165;DHT22;571;50.930;6.926;2023-03-01T16:42:18;8.60;53.80
1165;DHT22;571;50.930;6.926;2023-03-01T16:44:45;8.40;54.00
1165;DHT22;571;50.930;6.926;2023-03-01T16:47:12;8.30;54.30
1165;DHT22;571;50.930;6.926;2023-03-01T16:49:38;8.20;55.20
1165;DHT22;571;50.930;6.926;2023-03-01T16:52:05;8.30;55.00
1165;DHT22;571;50.930;6.926;2023-03-01T16:54:32;8.30;54.40
1165;DHT22;571;50.930;6.926;2023-03-01T16:56:59;8.20;55.10
1165;DHT22;571;50.930;6.926;2023-03-01T16:59:27;8.30;54.00
1165;DHT22;571;50.930;6.926;2023-03-01T17:01:53;8.20;53.80
1165;DHT22;571;50.930;6.926;2023-03-01T17:04:20;8.20;54.00
1165;DHT22;571;50.930;6.926;2023-03-01T17:06:47;8.00;54.30
1165;DHT22;571;50.930;6.926;2023-03-01T17:09:14;8.00;54.70
1165;DHT22;571;50.930;6.926;2023-03-01T17:11:42;8.10;54.90
1165;DHT22;571;50.930;6.926;2023-03-01T17:14:09;8.10;54.70
1165;DHT22;571;50.930;6.926;2023-03-01T17:16:37;8.00;54.50
1165;DHT22;571;50.930;6.926;2023-03-01T17:19:04;7.80;54.70
1165;DHT22;571;50.930;6.926;2023-03-01T17:21:30;7.70;54.90
1165;DHT22;571;50.930;6.926;2023-03-01T17:23:57;7.70;55.60
1165;DHT22;571;50.930;6.926;2023-03-01T17:26:24;7.70;55.70
1165;DHT22;571;50.930;6.926;2023-03-01T17:28:51;7.70;55.30
1165;DHT22;571;50.930;6.926;2023-03-01T17:31:18;7.70;55.40
1165;DHT22;571;50.930;6.926;2023-03-01T17:33:46;7.50;55.00
1165;DHT22;571;50.930;6.926;2023-03-01T17:36:14;7.60;56.20
1165;DHT22;571;50.930;6.926;2023-03-01T17:38:41;7.80;54.70
1165;DHT22;571;50.930;6.926;2023-03-01T17:41:07;7.60;55.30
1165;DHT22;571;50.930;6.926;2023-03-01T17:43:36;7.50;54.70
1165;DHT22;571;50.930;6.926;2023-03-01T17:46:03;7.40;54.80
1165;DHT22;571;50.930;6.926;2023-03-01T17:48:30;7.30;55.70
1165;DHT22;571;50.930;6.926;2023-03-01T17:50:58;7.30;55.80
1165;DHT22;571;50.930;6.926;2023-03-01T17:53:25;7.30;56.00
1165;DHT22;571;50.930;6.926;2023-03-01T17:55:58;7.40;55.90
1165;DHT22;571;50.930;6.926;2023-03-01T17:58:26;7.30;56.60
1165;DHT22;571;50.930;6.926;2023-03-01T18:00:53;7.10;56.00
1165;DHT22;571;50.930;6.926;2023-03-01T18:03:20;7.10;56.40
1165;DHT22;571;50.930;6.926;2023-03-01T18:05:47;7.10;57.00
1165;DHT22;571;50.930;6.926;2023-03-01T18:08:16;6.90;57.00
1165;DHT22;571;50.930;6.926;2023-03-01T18:10:43;6.80;58.00
1165;DHT22;571;50.930;6.926;2023-03-01T18:13:10;6.70;57.80
1165;DHT22;571;50.930;6.926;2023-03-01T18:15:39;6.70;58.50
1165;DHT22;571;50.930;6.926;2023-03-01T18:18:06;6.70;57.80
1165;DHT22;571;50.930;6.926;2023-03-01T18:20:32;6.70;58.70
1165;DHT22;571;50.930;6.926;2023-03-01T18:22:59;6.80;59.00
1165;DHT22;571;50.930;6.926;2023-03-01T18:25:27;6.70;58.70
1165;DHT22;571;50.930;6.926;2023-03-01T18:27:54;6.70;58.70
1165;DHT22;571;50.930;6.926;2023-03-01T18:30:21;6.50;58.50
1165;DHT22;571;50.930;6.926;2023-03-01T18:32:47;6.50;59.00
1165;DHT22;571;50.930;6.926;2023-03-01T18:35:20;6.40;59.50
1165;DHT22;571;50.930;6.926;2023-03-01T18:37:47;6.30;60.30
1165;DHT22;571;50.930;6.926;2023-03-01T18:40:14;6.20;60.30
1165;DHT22;571;50.930;6.926;2023-03-01T18:42:42;6.10;61.30
1165;DHT22;571;50.930;6.926;2023-03-01T18:45:10;6.10;60.70
1165;DHT22;571;50.930;6.926;2023-03-01T18:47:38;6.30;61.50
1165;DHT22;571;50.930;6.926;2023-03-01T18:50:06;6.50;60.60
1165;DHT22;571;50.930;6.926;2023-03-01T18:52:32;6.40;59.70
1165;DHT22;571;50.930;6.926;2023-03-01T18:54:59;6.30;60.70
1165;DHT22;571;50.930;6.926;2023-03-01T18:57:26;6.30;60.70
1165;DHT22;571;50.930;6.926;2023-03-01T18:59:54;6.20;62.10
1165;DHT22;571;50.930;6.926;2023-03-01T19:02:21;6.00;61.40
1165;DHT22;571;50.930;6.926;2023-03-01T19:04:48;6.00;62.20
1165;DHT22;571;50.930;6.926;2023-03-01T19:07:15;5.90;62.30
1165;DHT22;571;50.930;6.926;2023-03-01T19:09:42;5.80;63.10
1165;DHT22;571;50.930;6.926;2023-03-01T19:12:09;5.70;64.40
1165;DHT22;571;50.930;6.926;2023-03-01T19:14:36;5.70;64.30
1165;DHT22;571;50.930;6.926;2023-03-01T19:17:04;5.70;64.20
1165;DHT22;571;50.930;6.926;2023-03-01T19:19:30;5.70;63.60
1165;DHT22;571;50.930;6.926;2023-03-01T19:21:57;5.70;63.90
1165;DHT22;571;50.930;6.926;2023-03-01T19:24:24;5.70;64.10
1165;DHT22;571;50.930;6.926;2023-03-01T19:26:53;5.80;64.40
1165;DHT22;571;50.930;6.926;2023-03-01T19:29:19;5.70;65.80
1165;DHT22;571;50.930;6.926;2023-03-01T19:31:46;5.60;65.50
1165;DHT22;571;50.930;6.926;2023-03-01T19:34:14;5.50;65.60
1165;DHT22;571;50.930;6.926;2023-03-01T19:36:42;5.80;65.30
1165;DHT22;571;50.930;6.926;2023-03-01T19:39:10;5.90;63.80
1165;DHT22;571;50.930;6.926;2023-03-01T19:41:38;5.90;64.10
1165;DHT22;571;50.930;6.926;2023-03-01T19:44:04;5.80;64.20
1165;DHT22;571;50.930;6.926;2023-03-01T19:46:33;5.70;64.90
1165;DHT22;571;50.930;6.926;2023-03-01T19:49:00;5.50;66.00
1165;DHT22;571;50.930;6.926;2023-03-01T19:51:29;5.40;66.70
1165;DHT22;571;50.930;6.926;2023-03-01T19:53:58;5.30;67.10
1165;DHT22;571;50.930;6.926;2023-03-01T19:56:24;5.30;67.20
1165;DHT22;571;50.930;6.926;2023-03-01T19:58:51;5.30;66.90
1165;DHT22;571;50.930;6.926;2023-03-01T20:01:25;5.50;66.30
1165;DHT22;571;50.930;6.926;2023-03-01T20:03:52;5.40;66.20
1165;DHT22;571;50.930;6.926;2023-03-01T20:06:19;5.30;66.00
1165;DHT22;571;50.930;6.926;2023-03-01T20:08:48;5.30;66.50
1165;DHT22;571;50.930;6.926;2023-03-01T20:11:15;5.20;67.00
1165;DHT22;571;50.930;6.926;2023-03-01T20:13:42;5.20;67.30
1165;DHT22;571;50.930;6.926;2023-03-01T20:16:09;5.10;69.20
1165;DHT22;571;50.930;6.926;2023-03-01T20:18:36;5.00;70.00
1165;DHT22;571;50.930;6.926;2023-03-01T20:21:03;4.90;69.10
1165;DHT22;571;50.930;6.926;2023-03-01T20:23:30;4.90;70.00
1165;DHT22;571;50.930;6.926;2023-03-01T20:26:03;4.90;70.00
1165;DHT22;571;50.930;6.926;2023-03-01T20:28:30;4.80;70.10
1165;DHT22;571;50.930;6.926;2023-03-01T20:31:07;4.90;69.40
1165;DHT22;571;50.930;6.926;2023-03-01T20:33:35;4.90;70.30
1165;DHT22;571;50.930;6.926;2023-03-01T20:36:04;4.90;70.00
1165;DHT22;571;50.930;6.926;2023-03-01T20:38:31;4.90;69.80
1165;DHT22;571;50.930;6.926;2023-03-01T20:40:58;4.80;70.20
1165;DHT22;571;50.930;6.926;2023-03-01T20:43:27;4.80;70.10
1165;DHT22;571;50.930;6.926;2023-03-01T20:45:54;4.80;70.10